createdAt,value
2022-08-16T00:01:56.094Z,21.30
2022-08-16T00:04:27.641Z,21.23
2022-08-16T00:06:55.461Z,21.20
2022-08-16T00:09:23.055Z,21.23
2022-08-16T00:11:52.722Z,21.27
2022-08-16T00:14:29.256Z,21.28
2022-08-16T00:17:16.052Z,21.21
2022-08-16T00:19:45.682Z,21.03
2022-08-16T00:22:15.293Z,20.92
2022-08-16T00:24:44.800Z,20.85
2022-08-16T00:27:14.544Z,20.85
2022-08-16T00:29:41.908Z,20.83
2022-08-16T00:32:11.021Z,20.82
2022-08-16T00:34:45.004Z,20.84
2022-08-16T00:37:21.341Z,20.82
2022-08-16T00:39:58.449Z,20.77
2022-08-16T00:42:30.507Z,20.76
2022-08-16T00:45:01.082Z,20.70
2022-08-16T00:47:34.546Z,20.64
2022-08-16T00:50:05.460Z,20.63
2022-08-16T00:52:50.589Z,20.54
2022-08-16T00:55:20.038Z,20.58
2022-08-16T00:57:58.273Z,20.65
2022-08-16T01:00:28.856Z,20.66
2022-08-16T01:02:57.457Z,20.70
2022-08-16T01:05:25.549Z,20.77
2022-08-16T01:07:54.220Z,20.83
2022-08-16T01:10:32.035Z,20.87
2022-08-16T01:13:02.822Z,20.93
2022-08-16T01:15:32.901Z,21.01
2022-08-16T01:18:02.110Z,21.01
2022-08-16T01:20:32.907Z,21.01
2022-08-16T01:23:08.727Z,21.02
2022-08-16T01:25:39.067Z,21.05
2022-08-16T01:28:09.705Z,20.99
2022-08-16T01:30:39.847Z,20.95
2022-08-16T01:33:14.698Z,20.95
2022-08-16T01:35:52.383Z,20.98
2022-08-16T01:38:28.663Z,21.02
2022-08-16T01:41:02.161Z,21.01
2022-08-16T01:43:31.270Z,21.00
2022-08-16T01:46:38.385Z,21.03
2022-08-16T01:48:48.640Z,21.00
2022-08-16T01:51:19.168Z,20.91
2022-08-16T01:53:55.378Z,20.73
2022-08-16T01:56:25.240Z,20.64
2022-08-16T01:58:54.849Z,20.61
2022-08-16T02:01:23.096Z,20.51
2022-08-16T02:03:53.351Z,20.41
2022-08-16T02:06:34.811Z,20.41
2022-08-16T02:09:05.559Z,20.33
2022-08-16T02:11:47.401Z,20.35
2022-08-16T02:14:18.455Z,20.40
2022-08-16T02:16:49.042Z,20.52
2022-08-16T02:19:18.452Z,20.63
2022-08-16T02:22:08.961Z,20.63
2022-08-16T02:24:40.988Z,20.60
2022-08-16T02:27:09.310Z,20.69
2022-08-16T02:29:37.150Z,20.69
2022-08-16T02:32:51.062Z,20.64
2022-08-16T02:34:57.946Z,20.65
2022-08-16T02:37:51.188Z,20.70
2022-08-16T02:40:16.818Z,20.78
2022-08-16T02:42:45.164Z,20.81
2022-08-16T02:45:13.202Z,20.72
2022-08-16T02:48:00.323Z,20.59
2022-08-16T02:50:55.529Z,20.53
2022-08-16T02:53:18.252Z,20.51
2022-08-16T02:55:51.311Z,20.53
2022-08-16T02:58:19.617Z,20.49
2022-08-16T03:00:53.359Z,20.53
2022-08-16T03:03:23.615Z,20.50
2022-08-16T03:05:53.103Z,20.42
2022-08-16T03:08:51.049Z,20.39
2022-08-16T03:11:18.011Z,20.36
2022-08-16T03:13:51.584Z,20.36
2022-08-16T03:16:38.414Z,20.35
2022-08-16T03:19:09.486Z,20.36
2022-08-16T03:21:38.005Z,20.37
2022-08-16T03:24:28.250Z,20.37
2022-08-16T03:26:57.871Z,20.33
2022-08-16T03:29:30.085Z,20.37
2022-08-16T03:31:59.242Z,20.40
2022-08-16T03:34:27.635Z,20.38
2022-08-16T03:36:55.296Z,20.38
2022-08-16T03:39:23.091Z,20.35
2022-08-16T03:41:59.205Z,20.32
2022-08-16T03:44:44.783Z,20.34
2022-08-16T03:47:19.001Z,20.33
2022-08-16T03:49:48.097Z,20.30
2022-08-16T03:52:20.703Z,20.30
2022-08-16T03:54:57.480Z,20.29
2022-08-16T03:57:32.184Z,20.26
2022-08-16T04:00:35.331Z,20.19
2022-08-16T04:03:07.092Z,20.15
2022-08-16T04:05:36.288Z,20.12
2022-08-16T04:08:23.637Z,20.10
2022-08-16T04:10:52.336Z,20.13
2022-08-16T04:13:20.225Z,20.10
2022-08-16T04:15:48.267Z,20.09
2022-08-16T04:18:20.336Z,20.06
2022-08-16T04:20:49.898Z,20.01
2022-08-16T04:23:17.182Z,19.97
2022-08-16T04:25:47.197Z,19.95
2022-08-16T04:28:29.350Z,19.89
2022-08-16T04:31:02.470Z,19.89
2022-08-16T04:33:34.938Z,19.93
2022-08-16T04:36:02.619Z,19.94
2022-08-16T04:38:32.069Z,19.96
2022-08-16T04:40:59.780Z,19.98
2022-08-16T04:43:27.207Z,19.98
2022-08-16T04:46:00.139Z,19.99
2022-08-16T04:48:32.735Z,20.00
2022-08-16T04:51:02.193Z,20.01
2022-08-16T04:53:41.355Z,20.02
2022-08-16T04:56:11.053Z,20.10
2022-08-16T04:58:45.677Z,20.21
2022-08-16T05:01:15.323Z,20.34
2022-08-16T05:04:01.146Z,20.43
2022-08-16T05:06:42.043Z,20.40
2022-08-16T05:09:12.928Z,20.43
2022-08-16T05:11:40.233Z,20.46
2022-08-16T05:14:08.085Z,20.49
2022-08-16T05:16:36.495Z,20.52
2022-08-16T05:19:04.990Z,20.60
2022-08-16T05:21:39.607Z,20.68
2022-08-16T05:24:07.819Z,20.74
2022-08-16T05:26:43.221Z,20.74
2022-08-16T05:29:17.004Z,20.74
2022-08-16T05:31:48.505Z,20.79
2022-08-16T05:34:22.477Z,20.88
2022-08-16T05:36:51.283Z,20.97
2022-08-16T05:39:20.736Z,21.07
2022-08-16T05:41:51.786Z,21.17
2022-08-16T05:44:23.576Z,21.26
2022-08-16T05:46:53.084Z,21.37
2022-08-16T05:49:23.260Z,21.50
2022-08-16T05:51:50.862Z,21.61
2022-08-16T05:54:25.249Z,21.70
2022-08-16T05:56:53.820Z,21.84
2022-08-16T05:59:21.940Z,21.96
2022-08-16T06:01:52.265Z,22.00
2022-08-16T06:04:34.840Z,22.06
2022-08-16T06:07:08.189Z,22.14
2022-08-16T06:09:42.505Z,22.22
2022-08-16T06:12:12.636Z,22.32
2022-08-16T06:14:58.905Z,22.40
2022-08-16T06:17:42.812Z,22.49
2022-08-16T06:20:24.374Z,22.65
2022-08-16T06:23:02.780Z,22.73
2022-08-16T06:25:35.770Z,22.80
2022-08-16T06:28:08.436Z,22.89
2022-08-16T06:30:43.767Z,23.02
2022-08-16T06:33:12.768Z,23.13
2022-08-16T06:35:41.561Z,23.22
2022-08-16T06:38:32.161Z,23.34
2022-08-16T06:40:57.275Z,23.46
2022-08-16T06:43:27.331Z,23.55
2022-08-16T06:45:55.345Z,23.60
2022-08-16T06:48:32.760Z,23.72
2022-08-16T06:51:04.778Z,23.83
2022-08-16T06:53:35.581Z,23.96
2022-08-16T06:56:14.003Z,24.05
2022-08-16T06:58:45.618Z,24.16
2022-08-16T07:01:15.045Z,24.30
2022-08-16T07:03:54.586Z,24.43
2022-08-16T07:06:26.743Z,24.56
2022-08-16T07:08:54.257Z,24.63
2022-08-16T07:11:47.644Z,24.69
2022-08-16T07:14:24.102Z,24.83
2022-08-16T07:16:55.499Z,24.94
2022-08-16T07:20:02.479Z,25.04
2022-08-16T07:22:52.842Z,25.20
2022-08-16T07:25:01.233Z,25.32
2022-08-16T07:27:29.182Z,25.40
2022-08-16T07:30:00.899Z,25.46
2022-08-16T07:32:29.419Z,25.54
2022-08-16T07:34:59.053Z,25.60
2022-08-16T07:37:26.317Z,25.61
2022-08-16T07:39:54.795Z,25.71
2022-08-16T07:42:28.409Z,25.91
2022-08-16T07:45:03.341Z,25.98
2022-08-16T07:47:37.713Z,26.02
2022-08-16T07:50:07.735Z,26.14
2022-08-16T07:52:38.875Z,26.21
2022-08-16T07:55:07.455Z,26.31
2022-08-16T07:57:44.335Z,26.44
2022-08-16T08:00:25.109Z,26.58
2022-08-16T08:02:55.536Z,26.67
2022-08-16T08:05:35.352Z,26.74
2022-08-16T08:08:11.853Z,26.89
2022-08-16T08:10:51.286Z,27.07
2022-08-16T08:13:18.841Z,27.14
2022-08-16T08:15:52.919Z,27.24
2022-08-16T08:18:30.589Z,27.35
2022-08-16T08:20:59.753Z,27.44
2022-08-16T08:23:27.719Z,27.51
2022-08-16T08:25:55.882Z,27.57
2022-08-16T08:28:23.773Z,27.60
2022-08-16T08:31:01.553Z,27.62
2022-08-16T08:33:31.574Z,27.63
2022-08-16T08:36:01.131Z,27.71
2022-08-16T08:38:44.291Z,27.77
2022-08-16T08:41:18.347Z,27.91
2022-08-16T08:43:50.244Z,27.97
2022-08-16T08:46:21.358Z,28.05
2022-08-16T08:48:59.379Z,28.14
2022-08-16T08:51:35.873Z,28.21
2022-08-16T08:54:06.734Z,28.26
2022-08-16T08:56:37.281Z,28.36
2022-08-16T08:59:13.379Z,28.48
2022-08-16T09:01:57.907Z,28.60
2022-08-16T09:04:26.714Z,28.58
2022-08-16T09:06:54.749Z,28.64
2022-08-16T09:09:22.871Z,28.73
2022-08-16T09:12:04.051Z,28.84
2022-08-16T09:14:34.802Z,29.02
2022-08-16T09:17:21.619Z,29.10
2022-08-16T09:19:55.162Z,29.11
2022-08-16T09:22:24.012Z,29.27
2022-08-16T09:24:52.383Z,29.32
2022-08-16T09:27:25.055Z,29.40
2022-08-16T09:30:00.224Z,29.42
2022-08-16T09:32:30.615Z,29.48
2022-08-16T09:34:59.801Z,29.67
2022-08-16T09:37:36.424Z,29.85
2022-08-16T09:40:33.292Z,29.91
2022-08-16T09:42:58.678Z,29.89
2022-08-16T09:45:28.574Z,29.83
2022-08-16T09:47:58.342Z,29.81
2022-08-16T09:50:36.888Z,29.90
2022-08-16T09:53:15.066Z,30.04
2022-08-16T09:55:46.406Z,30.00
2022-08-16T09:58:40.702Z,30.02
2022-08-16T10:01:06.094Z,30.06
2022-08-16T10:03:36.139Z,30.22
2022-08-16T10:06:03.618Z,30.31
2022-08-16T10:08:31.651Z,30.53
2022-08-16T10:11:24.859Z,30.59
2022-08-16T10:13:52.230Z,30.53
2022-08-16T10:16:21.955Z,30.44
2022-08-16T10:19:01.581Z,30.38
2022-08-16T10:21:34.122Z,30.47
2022-08-16T10:24:02.198Z,30.51
2022-08-16T10:27:16.984Z,30.59
2022-08-16T10:29:20.120Z,30.77
2022-08-16T10:31:53.614Z,30.77
2022-08-16T10:34:31.923Z,30.92
2022-08-16T10:37:00.622Z,31.08
2022-08-16T10:39:41.156Z,31.15
2022-08-16T10:42:10.052Z,31.20
2022-08-16T10:44:40.947Z,31.20
2022-08-16T10:47:11.563Z,31.17
2022-08-16T10:49:39.186Z,31.13
2022-08-16T10:52:18.022Z,31.09
2022-08-16T10:57:34.993Z,30.86
2022-08-16T11:00:06.806Z,30.82
2022-08-16T11:03:37.598Z,30.85
2022-08-16T11:08:35.904Z,31.02
2022-08-16T11:11:12.886Z,31.12
2022-08-16T11:14:06.067Z,31.11
2022-08-16T11:19:23.785Z,31.40
2022-08-16T11:24:44.652Z,31.57
2022-08-16T11:27:23.356Z,31.78
2022-08-16T11:29:54.784Z,32.05
2022-08-16T11:32:31.594Z,32.19
2022-08-16T11:35:13.895Z,32.28
2022-08-16T11:40:33.606Z,32.35
2022-08-16T11:43:04.698Z,32.31
2022-08-16T11:45:34.661Z,32.29
2022-08-16T11:48:02.965Z,32.41
2022-08-16T11:50:33.448Z,32.45
2022-08-16T11:53:02.394Z,32.52
2022-08-16T11:55:32.073Z,32.54
2022-08-16T11:58:00.417Z,32.49
2022-08-16T12:00:50.247Z,32.44
2022-08-16T12:03:16.030Z,32.42
2022-08-16T12:05:45.038Z,32.45
2022-08-16T12:08:13.075Z,32.48
2022-08-16T12:10:43.111Z,32.46
2022-08-16T12:13:11.848Z,32.47
2022-08-16T12:15:39.826Z,32.46
2022-08-16T12:18:09.307Z,32.48
2022-08-16T12:20:39.698Z,32.58
2022-08-16T12:23:07.312Z,32.64
2022-08-16T12:25:35.373Z,32.70
2022-08-16T12:28:03.486Z,32.72
2022-08-16T12:30:37.746Z,32.70
2022-08-16T12:33:07.784Z,32.73
2022-08-16T12:35:36.927Z,32.81
2022-08-16T12:38:38.152Z,32.89
2022-08-16T12:40:55.683Z,32.88
2022-08-16T12:43:25.534Z,32.86
2022-08-16T12:45:54.334Z,32.85
2022-08-16T12:48:42.941Z,32.94
2022-08-16T12:51:13.688Z,32.91
2022-08-16T12:53:53.898Z,32.97
2022-08-16T12:56:25.362Z,32.93
2022-08-16T12:58:53.529Z,32.95
2022-08-16T13:01:26.871Z,32.90
2022-08-16T13:04:12.540Z,32.78
2022-08-16T13:06:43.346Z,32.82
2022-08-16T13:09:29.085Z,32.97
2022-08-16T13:12:21.025Z,33.09
2022-08-16T13:14:50.158Z,33.21
2022-08-16T13:17:20.956Z,33.31
2022-08-16T13:20:07.037Z,33.35
2022-08-16T13:22:37.385Z,33.33
2022-08-16T13:25:06.521Z,33.17
2022-08-16T13:28:02.215Z,33.01
2022-08-16T13:30:36.969Z,33.01
2022-08-16T13:33:13.302Z,33.12
2022-08-16T13:35:43.953Z,33.15
2022-08-16T13:38:24.471Z,32.98
2022-08-16T13:40:53.620Z,32.85
2022-08-16T13:43:25.245Z,32.90
2022-08-16T13:45:55.355Z,32.78
2022-08-16T13:48:26.286Z,32.64
2022-08-16T13:50:54.946Z,32.74
2022-08-16T13:53:25.430Z,32.72
2022-08-16T13:55:57.904Z,32.68
2022-08-16T13:58:34.651Z,32.59
2022-08-16T14:01:09.689Z,32.40
2022-08-16T14:03:39.575Z,32.32
2022-08-16T14:06:11.074Z,32.36
2022-08-16T14:08:41.909Z,32.46
2022-08-16T14:11:14.492Z,32.44
2022-08-16T14:13:42.962Z,32.40
2022-08-16T14:16:12.503Z,32.35
2022-08-16T14:18:52.853Z,32.22
2022-08-16T14:21:22.048Z,32.04
2022-08-16T14:23:52.259Z,31.95
2022-08-16T14:26:21.280Z,31.80
2022-08-16T14:28:50.708Z,31.61
2022-08-16T14:31:18.241Z,31.40
2022-08-16T14:33:45.556Z,31.16
2022-08-16T14:36:18.641Z,30.94
2022-08-16T14:38:58.049Z,30.72
2022-08-16T14:41:26.050Z,30.62
2022-08-16T14:43:53.375Z,30.55
2022-08-16T14:46:20.782Z,30.37
2022-08-16T14:48:48.059Z,30.35
2022-08-16T14:51:15.915Z,30.33
2022-08-16T14:53:45.157Z,30.29
2022-08-16T14:56:14.969Z,30.23
2022-08-16T14:58:45.282Z,30.20
2022-08-16T15:01:15.283Z,30.24
2022-08-16T15:03:44.846Z,30.30
2022-08-16T15:06:13.233Z,30.38
2022-08-16T15:08:42.063Z,30.41
2022-08-16T15:11:09.351Z,30.39
2022-08-16T15:13:36.674Z,30.45
2022-08-16T15:16:04.717Z,30.52
2022-08-16T15:18:33.541Z,30.58
2022-08-16T15:21:02.513Z,30.57
2022-08-16T15:23:33.589Z,30.60
2022-08-16T15:26:03.427Z,30.57
2022-08-16T15:28:33.012Z,30.53
2022-08-16T15:31:03.390Z,30.53
2022-08-16T15:33:32.731Z,30.59
2022-08-16T15:36:00.541Z,30.71
2022-08-16T15:38:58.146Z,30.62
2022-08-16T15:41:35.856Z,30.56
2022-08-16T15:44:04.786Z,30.72
2022-08-16T15:46:54.798Z,30.73
2022-08-16T15:49:37.369Z,30.90
2022-08-16T15:52:07.971Z,31.07
2022-08-16T15:54:52.431Z,31.09
2022-08-16T15:57:22.476Z,31.21
2022-08-16T15:59:52.526Z,31.26
2022-08-16T16:02:27.773Z,31.26
2022-08-16T16:05:04.420Z,31.27
2022-08-16T16:07:33.424Z,31.42
2022-08-16T16:10:02.112Z,31.52
2022-08-16T16:12:50.849Z,31.75
2022-08-16T16:15:18.482Z,32.09
2022-08-16T16:17:50.696Z,32.48
2022-08-16T16:20:20.807Z,32.91
2022-08-16T16:22:49.813Z,33.49
2022-08-16T16:25:17.944Z,33.92
2022-08-16T16:27:45.593Z,34.28
2022-08-16T16:30:38.141Z,34.65
2022-08-16T16:33:02.498Z,34.85
2022-08-16T16:35:32.945Z,35.08
2022-08-16T16:38:01.019Z,35.29
2022-08-16T16:40:32.854Z,35.39
2022-08-16T16:43:01.430Z,35.42
2022-08-16T16:45:34.784Z,35.38
2022-08-16T16:48:12.499Z,35.15
2022-08-16T16:50:44.639Z,34.66
2022-08-16T16:53:16.723Z,33.88
2022-08-16T16:55:47.451Z,33.19
2022-08-16T16:58:38.819Z,32.59
2022-08-16T17:01:08.398Z,31.98
2022-08-16T17:03:35.916Z,31.47
2022-08-16T17:06:09.361Z,31.05
2022-08-16T17:08:40.977Z,30.67
2022-08-16T17:11:12.580Z,30.39
2022-08-16T17:13:40.210Z,30.12
2022-08-16T17:16:18.420Z,29.87
2022-08-16T17:19:16.851Z,29.61
2022-08-16T17:21:36.986Z,29.39
2022-08-16T17:24:18.058Z,29.18
2022-08-16T17:26:48.898Z,28.97
2022-08-16T17:29:16.576Z,28.77
2022-08-16T17:31:45.550Z,28.60
2022-08-16T17:34:30.534Z,28.41
2022-08-16T17:36:59.560Z,28.22
2022-08-16T17:39:29.515Z,28.09
2022-08-16T17:41:58.093Z,27.95
2022-08-16T17:44:25.620Z,27.81
2022-08-16T17:46:53.286Z,27.71
2022-08-16T17:49:20.925Z,27.61
2022-08-16T17:51:48.694Z,27.50
2022-08-16T17:54:18.492Z,27.43
2022-08-16T17:56:58.583Z,27.35
2022-08-16T17:59:28.918Z,27.23
2022-08-16T18:01:56.595Z,27.15
2022-08-16T18:04:45.197Z,27.05
2022-08-16T18:07:12.232Z,26.92
2022-08-16T18:09:40.695Z,26.83
2022-08-16T18:12:44.601Z,26.72
2022-08-16T18:15:06.448Z,26.59
2022-08-16T18:17:33.878Z,26.53
2022-08-16T18:20:01.139Z,26.44
2022-08-16T18:22:30.761Z,26.35
2022-08-16T18:24:58.530Z,26.28
2022-08-16T18:27:27.937Z,26.21
2022-08-16T18:29:55.413Z,26.14
2022-08-16T18:32:25.121Z,26.06
2022-08-16T18:34:54.441Z,26.00
2022-08-16T18:37:24.847Z,25.95
2022-08-16T18:39:52.200Z,25.89
2022-08-16T18:42:20.913Z,25.83
2022-08-16T18:44:49.071Z,25.77
2022-08-16T18:47:16.405Z,25.69
2022-08-16T18:49:43.727Z,25.64
2022-08-16T18:52:14.235Z,25.59
2022-08-16T18:55:02.097Z,25.54
2022-08-16T18:57:40.129Z,25.50
2022-08-16T19:00:11.402Z,25.46
2022-08-16T19:02:54.885Z,25.40
2022-08-16T19:05:26.780Z,25.36
2022-08-16T19:07:54.060Z,25.32
2022-08-16T19:10:21.602Z,25.28
2022-08-16T19:12:49.059Z,25.24
2022-08-16T19:15:18.742Z,25.18
2022-08-16T19:17:46.403Z,25.14
2022-08-16T19:20:17.554Z,25.08
2022-08-16T19:23:05.914Z,25.02
2022-08-16T19:25:48.922Z,24.99
2022-08-16T19:28:49.895Z,24.96
2022-08-16T19:31:10.920Z,24.90
2022-08-16T19:33:38.678Z,24.83
2022-08-16T19:36:06.723Z,24.74
2022-08-16T19:38:35.483Z,24.70
2022-08-16T19:41:03.206Z,24.68
2022-08-16T19:43:30.977Z,24.64
2022-08-16T19:45:58.333Z,24.56
2022-08-16T19:48:25.659Z,24.46
2022-08-16T19:50:52.960Z,24.37
2022-08-16T19:53:20.318Z,24.29
2022-08-16T19:55:48.211Z,24.20
2022-08-16T19:58:16.952Z,24.14
2022-08-16T20:00:46.952Z,24.06
2022-08-16T20:03:20.112Z,23.98
2022-08-16T20:05:48.022Z,23.94
2022-08-16T20:08:16.591Z,23.89
2022-08-16T20:10:45.451Z,23.89
2022-08-16T20:13:14.184Z,23.87
2022-08-16T20:15:41.940Z,23.86
2022-08-16T20:18:12.691Z,23.82
2022-08-16T20:20:50.051Z,23.78
2022-08-16T20:23:24.930Z,23.75
2022-08-16T20:25:55.974Z,23.73
2022-08-16T20:28:52.114Z,23.73
2022-08-16T20:31:11.607Z,23.75
2022-08-16T20:33:38.967Z,23.78
2022-08-16T20:36:06.363Z,23.81
2022-08-16T20:38:35.259Z,23.81
2022-08-16T20:41:02.566Z,23.81
2022-08-16T20:43:29.847Z,23.82
2022-08-16T20:45:57.123Z,23.82
2022-08-16T20:48:24.444Z,23.81
2022-08-16T20:50:51.818Z,23.81
2022-08-16T20:53:19.079Z,23.78
2022-08-16T20:55:46.380Z,23.77
2022-08-16T20:58:13.847Z,23.74
2022-08-16T21:00:41.275Z,23.71
2022-08-16T21:03:09.493Z,23.69
2022-08-16T21:05:37.218Z,23.70
2022-08-16T21:08:46.509Z,23.70
2022-08-16T21:10:52.558Z,23.71
2022-08-16T21:13:20.871Z,23.68
2022-08-16T21:15:49.038Z,23.67
2022-08-16T21:18:16.294Z,23.60
2022-08-16T21:20:43.558Z,23.57
2022-08-16T21:23:11.294Z,23.51
2022-08-16T21:25:42.902Z,23.43
2022-08-16T21:28:41.348Z,23.38
2022-08-16T21:31:10.848Z,23.29
2022-08-16T21:33:38.151Z,23.22
2022-08-16T21:36:05.548Z,23.16
2022-08-16T21:38:32.879Z,23.10
2022-08-16T21:41:01.684Z,23.05
2022-08-16T21:43:32.275Z,23.03
2022-08-16T21:46:00.975Z,23.02
2022-08-16T21:48:34.496Z,23.00
2022-08-16T21:51:13.797Z,22.97
2022-08-16T21:53:41.652Z,22.93
2022-08-16T21:56:09.861Z,22.89
2022-08-16T21:58:43.981Z,22.88
2022-08-16T22:01:11.256Z,22.85
2022-08-16T22:03:38.566Z,22.81
2022-08-16T22:06:13.924Z,22.81
2022-08-16T22:08:49.046Z,22.79
2022-08-16T22:11:19.258Z,22.78
2022-08-16T22:13:58.280Z,22.73
2022-08-16T22:16:31.440Z,22.64
2022-08-16T22:18:59.516Z,22.55
2022-08-16T22:21:26.972Z,22.50
2022-08-16T22:23:57.921Z,22.62
2022-08-16T22:26:30.460Z,22.69
2022-08-16T22:29:04.593Z,22.74
2022-08-16T22:31:32.998Z,22.69
2022-08-16T22:34:01.948Z,22.60
2022-08-16T22:36:30.385Z,22.50
2022-08-16T22:38:58.773Z,22.42
2022-08-16T22:41:31.766Z,22.33
2022-08-16T22:43:59.408Z,22.37
2022-08-16T22:46:26.830Z,22.32
2022-08-16T22:48:54.123Z,22.15
2022-08-16T22:51:22.951Z,22.22
2022-08-16T22:53:50.555Z,22.24
2022-08-16T22:56:17.930Z,22.17
2022-08-16T22:58:46.006Z,22.15
2022-08-16T23:01:13.395Z,22.28
2022-08-16T23:03:40.894Z,22.28
2022-08-16T23:06:09.034Z,22.17
2022-08-16T23:08:39.406Z,22.04
2022-08-16T23:11:12.265Z,21.96
2022-08-16T23:13:50.686Z,21.90
2022-08-16T23:16:32.666Z,21.95
2022-08-16T23:19:06.047Z,22.03
2022-08-16T23:21:34.099Z,22.03
2022-08-16T23:24:01.514Z,21.98
2022-08-16T23:26:45.141Z,21.93
2022-08-16T23:29:25.609Z,21.85
2022-08-16T23:31:55.331Z,21.80
2022-08-16T23:34:22.596Z,21.81
2022-08-16T23:36:50.387Z,21.75
2022-08-16T23:39:17.584Z,21.69
2022-08-16T23:41:44.800Z,21.64
2022-08-16T23:44:58.737Z,21.62
2022-08-16T23:46:59.436Z,21.56
2022-08-16T23:49:57.261Z,21.53
2022-08-16T23:52:13.904Z,21.47
2022-08-16T23:54:41.113Z,21.44
2022-08-16T23:57:08.515Z,21.44
2022-08-16T23:59:52.601Z,21.41
